sensor_id;sensor_type;location;lat;lon;timestamp;P1;durP1;ratioP1;P2;durP2;ratioP2
57826;SDS011;43656;57.746;11.780;2023-02-12T00:01:36;80.97;;;9.80;;
57826;SDS011;43656;57.746;11.780;2023-02-12T00:04:01;96.20;;;10.10;;
57826;SDS011;43656;57.746;11.780;2023-02-12T00:06:27;90.55;;;10.20;;
57826;SDS011;43656;57.746;11.780;2023-02-12T00:08:54;93.47;;;10.00;;
57826;SDS011;43656;57.746;11.780;2023-02-12T00:11:21;95.38;;;10.20;;
57826;SDS011;43656;57.746;11.780;2023-02-12T00:13:49;100.78;;;11.02;;
57826;SDS011;43656;57.746;11.780;2023-02-12T00:16:16;99.88;;;10.63;;
57826;SDS011;43656;57.746;11.780;2023-02-12T00:18:44;104.53;;;11.00;;
57826;SDS011;43656;57.746;11.780;2023-02-12T00:21:10;86.40;;;10.10;;
57826;SDS011;43656;57.746;11.780;2023-02-12T00:23:38;118.53;;;10.88;;
57826;SDS011;43656;57.746;11.780;2023-02-12T00:26:09;100.88;;;10.38;;
57826;SDS011;43656;57.746;11.780;2023-02-12T00:28:36;104.32;;;12.52;;
57826;SDS011;43656;57.746;11.780;2023-02-12T00:31:12;104.07;;;11.13;;
57826;SDS011;43656;57.746;11.780;2023-02-12T00:33:41;100.20;;;10.60;;
57826;SDS011;43656;57.746;11.780;2023-02-12T00:36:07;96.97;;;11.07;;
57826;SDS011;43656;57.746;11.780;2023-02-12T00:38:33;99.25;;;11.18;;
57826;SDS011;43656;57.746;11.780;2023-02-12T00:40:59;107.68;;;11.38;;
57826;SDS011;43656;57.746;11.780;2023-02-12T00:43:25;105.47;;;11.43;;
57826;SDS011;43656;57.746;11.780;2023-02-12T00:45:50;117.43;;;11.15;;
57826;SDS011;43656;57.746;11.780;2023-02-12T00:48:15;104.10;;;11.80;;
57826;SDS011;43656;57.746;11.780;2023-02-12T00:50:43;112.97;;;12.07;;
57826;SDS011;43656;57.746;11.780;2023-02-12T00:53:09;118.20;;;11.15;;
57826;SDS011;43656;57.746;11.780;2023-02-12T00:55:35;113.07;;;11.63;;
57826;SDS011;43656;57.746;11.780;2023-02-12T00:58:00;136.93;;;13.93;;
57826;SDS011;43656;57.746;11.780;2023-02-12T01:00:26;110.47;;;11.48;;
57826;SDS011;43656;57.746;11.780;2023-02-12T01:02:51;113.43;;;11.73;;
57826;SDS011;43656;57.746;11.780;2023-02-12T01:05:17;104.35;;;10.25;;
57826;SDS011;43656;57.746;11.780;2023-02-12T01:07:43;116.30;;;12.30;;
57826;SDS011;43656;57.746;11.780;2023-02-12T01:10:13;140.70;;;11.90;;
57826;SDS011;43656;57.746;11.780;2023-02-12T01:12:39;113.22;;;12.20;;
57826;SDS011;43656;57.746;11.780;2023-02-12T01:15:04;120.20;;;11.88;;
57826;SDS011;43656;57.746;11.780;2023-02-12T01:17:30;121.18;;;11.82;;
57826;SDS011;43656;57.746;11.780;2023-02-12T01:19:56;124.22;;;11.88;;
57826;SDS011;43656;57.746;11.780;2023-02-12T01:22:22;122.50;;;11.48;;
57826;SDS011;43656;57.746;11.780;2023-02-12T01:24:48;130.65;;;12.50;;
57826;SDS011;43656;57.746;11.780;2023-02-12T01:27:14;121.70;;;12.73;;
57826;SDS011;43656;57.746;11.780;2023-02-12T01:29:39;113.15;;;11.95;;
57826;SDS011;43656;57.746;11.780;2023-02-12T01:32:08;114.47;;;12.35;;
57826;SDS011;43656;57.746;11.780;2023-02-12T01:34:34;122.57;;;12.13;;
57826;SDS011;43656;57.746;11.780;2023-02-12T01:37:00;113.53;;;12.10;;
57826;SDS011;43656;57.746;11.780;2023-02-12T01:39:25;118.20;;;12.98;;
57826;SDS011;43656;57.746;11.780;2023-02-12T01:41:50;112.53;;;11.85;;
57826;SDS011;43656;57.746;11.780;2023-02-12T01:44:20;114.40;;;12.77;;
57826;SDS011;43656;57.746;11.780;2023-02-12T01:46:49;107.82;;;10.88;;
57826;SDS011;43656;57.746;11.780;2023-02-12T01:49:26;110.30;;;11.35;;
57826;SDS011;43656;57.746;11.780;2023-02-12T01:52:13;97.32;;;10.70;;
57826;SDS011;43656;57.746;11.780;2023-02-12T01:54:54;117.45;;;12.00;;
57826;SDS011;43656;57.746;11.780;2023-02-12T01:57:24;118.45;;;11.23;;
57826;SDS011;43656;57.746;11.780;2023-02-12T01:59:53;128.13;;;11.98;;
57826;SDS011;43656;57.746;11.780;2023-02-12T02:02:20;119.38;;;12.45;;
57826;SDS011;43656;57.746;11.780;2023-02-12T02:04:47;131.18;;;11.55;;
57826;SDS011;43656;57.746;11.780;2023-02-12T02:07:19;117.55;;;12.05;;
57826;SDS011;43656;57.746;11.780;2023-02-12T02:09:45;125.47;;;11.80;;
57826;SDS011;43656;57.746;11.780;2023-02-12T02:12:11;112.30;;;10.80;;
57826;SDS011;43656;57.746;11.780;2023-02-12T02:14:57;107.38;;;12.30;;
57826;SDS011;43656;57.746;11.780;2023-02-12T02:20:14;139.73;;;12.43;;
57826;SDS011;43656;57.746;11.780;2023-02-12T02:28:49;134.52;;;12.07;;
57826;SDS011;43656;57.746;11.780;2023-02-12T02:31:19;142.05;;;11.68;;
57826;SDS011;43656;57.746;11.780;2023-02-12T02:39:38;131.68;;;10.70;;
57826;SDS011;43656;57.746;11.780;2023-02-12T02:44:54;126.05;;;11.13;;
57826;SDS011;43656;57.746;11.780;2023-02-12T02:47:40;125.57;;;11.20;;
57826;SDS011;43656;57.746;11.780;2023-02-12T02:50:12;106.38;;;10.18;;
57826;SDS011;43656;57.746;11.780;2023-02-12T02:52:48;131.20;;;10.68;;
57826;SDS011;43656;57.746;11.780;2023-02-12T02:55:19;126.00;;;11.40;;
57826;SDS011;43656;57.746;11.780;2023-02-12T02:57:58;119.57;;;11.18;;
57826;SDS011;43656;57.746;11.780;2023-02-12T03:00:34;112.28;;;9.85;;
57826;SDS011;43656;57.746;11.780;2023-02-12T03:03:10;126.22;;;11.20;;
57826;SDS011;43656;57.746;11.780;2023-02-12T03:05:48;114.13;;;10.55;;
57826;SDS011;43656;57.746;11.780;2023-02-12T03:08:21;122.47;;;10.65;;
57826;SDS011;43656;57.746;11.780;2023-02-12T03:10:55;117.95;;;10.75;;
57826;SDS011;43656;57.746;11.780;2023-02-12T03:13:25;114.13;;;11.38;;
57826;SDS011;43656;57.746;11.780;2023-02-12T03:16:02;125.07;;;10.75;;
57826;SDS011;43656;57.746;11.780;2023-02-12T03:18:29;108.40;;;9.18;;
57826;SDS011;43656;57.746;11.780;2023-02-12T03:21:01;106.72;;;9.48;;
57826;SDS011;43656;57.746;11.780;2023-02-12T03:23:34;116.78;;;10.27;;
57826;SDS011;43656;57.746;11.780;2023-02-12T03:26:06;113.40;;;10.70;;
57826;SDS011;43656;57.746;11.780;2023-02-12T03:28:36;92.30;;;9.13;;
57826;SDS011;43656;57.746;11.780;2023-02-12T03:31:09;97.65;;;9.43;;
57826;SDS011;43656;57.746;11.780;2023-02-12T03:34:01;102.75;;;9.98;;
57826;SDS011;43656;57.746;11.780;2023-02-12T03:39:07;99.45;;;10.23;;
57826;SDS011;43656;57.746;11.780;2023-02-12T03:49:31;88.13;;;10.25;;
57826;SDS011;43656;57.746;11.780;2023-02-12T03:52:03;85.35;;;9.10;;
57826;SDS011;43656;57.746;11.780;2023-02-12T03:54:29;96.20;;;9.70;;
57826;SDS011;43656;57.746;11.780;2023-02-12T03:57:01;92.65;;;9.65;;
57826;SDS011;43656;57.746;11.780;2023-02-12T03:59:31;88.93;;;10.05;;
57826;SDS011;43656;57.746;11.780;2023-02-12T04:02:00;75.78;;;8.30;;
57826;SDS011;43656;57.746;11.780;2023-02-12T04:04:26;80.47;;;8.75;;
57826;SDS011;43656;57.746;11.780;2023-02-12T04:06:53;66.38;;;7.47;;
57826;SDS011;43656;57.746;11.780;2023-02-12T04:09:19;65.32;;;8.05;;
57826;SDS011;43656;57.746;11.780;2023-02-12T04:18:09;49.75;;;6.13;;
57826;SDS011;43656;57.746;11.780;2023-02-12T04:20:35;50.17;;;6.43;;
57826;SDS011;43656;57.746;11.780;2023-02-12T04:23:23;56.58;;;6.50;;
57826;SDS011;43656;57.746;11.780;2023-02-12T04:31:35;59.15;;;6.25;;
57826;SDS011;43656;57.746;11.780;2023-02-12T04:36:45;43.10;;;5.60;;
57826;SDS011;43656;57.746;11.780;2023-02-12T04:39:19;50.35;;;6.22;;
57826;SDS011;43656;57.746;11.780;2023-02-12T04:41:49;51.97;;;6.13;;
57826;SDS011;43656;57.746;11.780;2023-02-12T04:46:47;41.25;;;6.18;;
57826;SDS011;43656;57.746;11.780;2023-02-12T04:49:16;42.78;;;5.20;;
57826;SDS011;43656;57.746;11.780;2023-02-12T04:51:43;46.03;;;5.32;;
57826;SDS011;43656;57.746;11.780;2023-02-12T04:54:10;35.55;;;4.85;;
57826;SDS011;43656;57.746;11.780;2023-02-12T04:56:36;38.72;;;4.63;;
57826;SDS011;43656;57.746;11.780;2023-02-12T04:59:02;37.08;;;4.63;;
57826;SDS011;43656;57.746;11.780;2023-02-12T05:01:28;37.70;;;4.78;;
57826;SDS011;43656;57.746;11.780;2023-02-12T05:03:53;46.08;;;5.65;;
57826;SDS011;43656;57.746;11.780;2023-02-12T05:06:19;33.80;;;4.20;;
57826;SDS011;43656;57.746;11.780;2023-02-12T05:08:44;36.22;;;4.28;;
57826;SDS011;43656;57.746;11.780;2023-02-12T05:11:10;31.95;;;4.10;;
57826;SDS011;43656;57.746;11.780;2023-02-12T05:13:36;42.42;;;4.80;;
57826;SDS011;43656;57.746;11.780;2023-02-12T05:16:02;31.20;;;4.10;;
57826;SDS011;43656;57.746;11.780;2023-02-12T05:18:29;28.35;;;3.90;;
57826;SDS011;43656;57.746;11.780;2023-02-12T05:20:56;42.65;;;4.35;;
57826;SDS011;43656;57.746;11.780;2023-02-12T05:23:29;35.50;;;4.13;;
57826;SDS011;43656;57.746;11.780;2023-02-12T05:25:57;42.13;;;4.28;;
57826;SDS011;43656;57.746;11.780;2023-02-12T05:28:23;35.90;;;4.20;;
57826;SDS011;43656;57.746;11.780;2023-02-12T05:30:49;28.73;;;3.63;;
57826;SDS011;43656;57.746;11.780;2023-02-12T05:33:14;40.63;;;4.00;;
57826;SDS011;43656;57.746;11.780;2023-02-12T05:35:40;35.50;;;3.70;;
57826;SDS011;43656;57.746;11.780;2023-02-12T05:38:05;34.95;;;4.22;;
57826;SDS011;43656;57.746;11.780;2023-02-12T05:40:31;41.90;;;4.20;;
57826;SDS011;43656;57.746;11.780;2023-02-12T05:42:56;27.90;;;4.15;;
57826;SDS011;43656;57.746;11.780;2023-02-12T05:45:21;33.85;;;4.55;;
57826;SDS011;43656;57.746;11.780;2023-02-12T05:47:52;43.67;;;4.10;;
57826;SDS011;43656;57.746;11.780;2023-02-12T05:50:20;51.95;;;4.88;;
57826;SDS011;43656;57.746;11.780;2023-02-12T05:52:45;43.38;;;4.22;;
57826;SDS011;43656;57.746;11.780;2023-02-12T05:55:11;46.15;;;4.85;;
57826;SDS011;43656;57.746;11.780;2023-02-12T05:57:36;46.13;;;4.85;;
57826;SDS011;43656;57.746;11.780;2023-02-12T06:00:03;48.65;;;4.43;;
57826;SDS011;43656;57.746;11.780;2023-02-12T06:02:30;41.13;;;4.38;;
57826;SDS011;43656;57.746;11.780;2023-02-12T06:04:57;50.78;;;4.60;;
57826;SDS011;43656;57.746;11.780;2023-02-12T06:07:22;57.20;;;5.53;;
57826;SDS011;43656;57.746;11.780;2023-02-12T06:09:47;48.78;;;4.40;;
57826;SDS011;43656;57.746;11.780;2023-02-12T06:12:14;55.45;;;4.65;;
57826;SDS011;43656;57.746;11.780;2023-02-12T06:14:40;45.50;;;4.18;;
57826;SDS011;43656;57.746;11.780;2023-02-12T06:17:05;48.03;;;5.10;;
57826;SDS011;43656;57.746;11.780;2023-02-12T06:19:31;56.17;;;5.90;;
57826;SDS011;43656;57.746;11.780;2023-02-12T06:21:56;44.58;;;5.00;;
57826;SDS011;43656;57.746;11.780;2023-02-12T06:24:21;54.97;;;4.60;;
57826;SDS011;43656;57.746;11.780;2023-02-12T06:26:50;50.30;;;4.93;;
57826;SDS011;43656;57.746;11.780;2023-02-12T06:29:16;56.70;;;5.05;;
57826;SDS011;43656;57.746;11.780;2023-02-12T06:31:42;48.70;;;4.63;;
57826;SDS011;43656;57.746;11.780;2023-02-12T06:34:09;55.60;;;6.00;;
57826;SDS011;43656;57.746;11.780;2023-02-12T06:36:37;58.63;;;5.65;;
57826;SDS011;43656;57.746;11.780;2023-02-12T06:39:04;51.25;;;6.43;;
57826;SDS011;43656;57.746;11.780;2023-02-12T06:41:30;58.08;;;5.35;;
57826;SDS011;43656;57.746;11.780;2023-02-12T06:43:56;55.70;;;5.80;;
57826;SDS011;43656;57.746;11.780;2023-02-12T06:46:22;53.88;;;5.20;;
57826;SDS011;43656;57.746;11.780;2023-02-12T06:48:47;62.15;;;6.88;;
57826;SDS011;43656;57.746;11.780;2023-02-12T06:51:17;66.13;;;6.30;;
57826;SDS011;43656;57.746;11.780;2023-02-12T06:53:46;65.13;;;6.72;;
57826;SDS011;43656;57.746;11.780;2023-02-12T06:56:12;58.17;;;5.63;;
57826;SDS011;43656;57.746;11.780;2023-02-12T06:58:38;61.95;;;6.70;;
57826;SDS011;43656;57.746;11.780;2023-02-12T07:03:38;57.97;;;5.97;;
57826;SDS011;43656;57.746;11.780;2023-02-12T07:06:04;68.13;;;6.03;;
57826;SDS011;43656;57.746;11.780;2023-02-12T07:08:30;57.17;;;6.20;;
57826;SDS011;43656;57.746;11.780;2023-02-12T07:10:55;57.65;;;5.80;;
57826;SDS011;43656;57.746;11.780;2023-02-12T07:13:21;75.80;;;7.25;;
57826;SDS011;43656;57.746;11.780;2023-02-12T07:15:46;67.22;;;6.40;;
57826;SDS011;43656;57.746;11.780;2023-02-12T07:18:12;66.18;;;6.13;;
57826;SDS011;43656;57.746;11.780;2023-02-12T07:20:38;62.97;;;6.13;;
57826;SDS011;43656;57.746;11.780;2023-02-12T07:23:03;61.65;;;6.10;;
57826;SDS011;43656;57.746;11.780;2023-02-12T07:25:29;65.43;;;5.97;;
57826;SDS011;43656;57.746;11.780;2023-02-12T07:27:54;65.22;;;6.10;;
57826;SDS011;43656;57.746;11.780;2023-02-12T07:30:19;61.47;;;5.97;;
57826;SDS011;43656;57.746;11.780;2023-02-12T07:32:45;70.28;;;6.82;;
57826;SDS011;43656;57.746;11.780;2023-02-12T07:35:10;77.53;;;6.00;;
57826;SDS011;43656;57.746;11.780;2023-02-12T07:37:36;54.58;;;6.03;;
57826;SDS011;43656;57.746;11.780;2023-02-12T07:40:01;69.28;;;6.90;;
57826;SDS011;43656;57.746;11.780;2023-02-12T07:42:27;60.85;;;7.80;;
57826;SDS011;43656;57.746;11.780;2023-02-12T07:44:54;61.22;;;7.47;;
57826;SDS011;43656;57.746;11.780;2023-02-12T07:47:19;64.90;;;7.13;;
57826;SDS011;43656;57.746;11.780;2023-02-12T07:49:45;62.15;;;8.85;;
57826;SDS011;43656;57.746;11.780;2023-02-12T07:52:10;65.65;;;7.35;;
57826;SDS011;43656;57.746;11.780;2023-02-12T07:54:36;53.53;;;6.50;;
57826;SDS011;43656;57.746;11.780;2023-02-12T07:57:01;61.20;;;6.32;;
57826;SDS011;43656;57.746;11.780;2023-02-12T07:59:27;56.92;;;7.20;;
57826;SDS011;43656;57.746;11.780;2023-02-12T08:01:53;56.33;;;7.20;;
57826;SDS011;43656;57.746;11.780;2023-02-12T08:04:21;64.15;;;6.35;;
57826;SDS011;43656;57.746;11.780;2023-02-12T08:06:49;53.08;;;6.10;;
57826;SDS011;43656;57.746;11.780;2023-02-12T08:09:20;50.08;;;6.25;;
57826;SDS011;43656;57.746;11.780;2023-02-12T08:11:47;57.55;;;5.68;;
57826;SDS011;43656;57.746;11.780;2023-02-12T08:14:14;53.80;;;5.97;;
57826;SDS011;43656;57.746;11.780;2023-02-12T08:16:41;60.63;;;7.10;;
57826;SDS011;43656;57.746;11.780;2023-02-12T08:19:08;66.88;;;7.70;;
57826;SDS011;43656;57.746;11.780;2023-02-12T08:21:34;59.50;;;6.00;;
57826;SDS011;43656;57.746;11.780;2023-02-12T08:23:59;46.17;;;6.68;;
57826;SDS011;43656;57.746;11.780;2023-02-12T08:26:26;53.30;;;6.85;;
57826;SDS011;43656;57.746;11.780;2023-02-12T08:28:56;49.05;;;6.10;;
57826;SDS011;43656;57.746;11.780;2023-02-12T08:31:27;56.75;;;5.15;;
57826;SDS011;43656;57.746;11.780;2023-02-12T08:33:54;60.70;;;7.15;;
57826;SDS011;43656;57.746;11.780;2023-02-12T08:36:24;52.10;;;6.30;;
57826;SDS011;43656;57.746;11.780;2023-02-12T08:38:52;67.32;;;6.57;;
57826;SDS011;43656;57.746;11.780;2023-02-12T08:41:19;48.35;;;5.05;;
57826;SDS011;43656;57.746;11.780;2023-02-12T08:43:48;51.03;;;5.75;;
57826;SDS011;43656;57.746;11.780;2023-02-12T08:46:17;50.28;;;6.15;;
57826;SDS011;43656;57.746;11.780;2023-02-12T08:48:44;55.42;;;6.50;;
57826;SDS011;43656;57.746;11.780;2023-02-12T08:51:14;52.95;;;5.13;;
57826;SDS011;43656;57.746;11.780;2023-02-12T08:53:45;56.92;;;5.50;;
57826;SDS011;43656;57.746;11.780;2023-02-12T08:56:13;54.17;;;6.50;;
57826;SDS011;43656;57.746;11.780;2023-02-12T08:58:40;56.25;;;5.68;;
57826;SDS011;43656;57.746;11.780;2023-02-12T09:01:14;36.17;;;4.82;;
57826;SDS011;43656;57.746;11.780;2023-02-12T09:03:41;49.70;;;4.53;;
57826;SDS011;43656;57.746;11.780;2023-02-12T09:06:07;43.17;;;4.22;;
57826;SDS011;43656;57.746;11.780;2023-02-12T09:08:34;35.72;;;4.55;;
57826;SDS011;43656;57.746;11.780;2023-02-12T09:11:34;39.70;;;4.63;;
57826;SDS011;43656;57.746;11.780;2023-02-12T09:16:27;38.42;;;4.10;;
57826;SDS011;43656;57.746;11.780;2023-02-12T09:18:53;47.75;;;4.53;;
57826;SDS011;43656;57.746;11.780;2023-02-12T09:21:19;35.58;;;4.32;;
57826;SDS011;43656;57.746;11.780;2023-02-12T09:23:45;43.92;;;4.40;;
57826;SDS011;43656;57.746;11.780;2023-02-12T09:26:14;43.03;;;4.05;;
57826;SDS011;43656;57.746;11.780;2023-02-12T09:28:41;41.40;;;4.45;;
57826;SDS011;43656;57.746;11.780;2023-02-12T09:31:07;45.08;;;4.35;;
57826;SDS011;43656;57.746;11.780;2023-02-12T09:33:40;36.35;;;4.35;;
57826;SDS011;43656;57.746;11.780;2023-02-12T09:36:10;35.67;;;4.40;;
57826;SDS011;43656;57.746;11.780;2023-02-12T09:38:37;33.60;;;4.15;;
57826;SDS011;43656;57.746;11.780;2023-02-12T09:47:26;44.17;;;4.68;;
57826;SDS011;43656;57.746;11.780;2023-02-12T09:52:52;34.85;;;3.72;;
57826;SDS011;43656;57.746;11.780;2023-02-12T09:55:21;36.22;;;4.47;;
57826;SDS011;43656;57.746;11.780;2023-02-12T09:57:53;29.83;;;3.80;;
57826;SDS011;43656;57.746;11.780;2023-02-12T10:00:26;31.05;;;4.05;;
57826;SDS011;43656;57.746;11.780;2023-02-12T10:02:55;34.78;;;4.53;;
57826;SDS011;43656;57.746;11.780;2023-02-12T10:05:36;26.95;;;3.67;;
57826;SDS011;43656;57.746;11.780;2023-02-12T10:11:05;25.40;;;3.63;;
57826;SDS011;43656;57.746;11.780;2023-02-12T10:18:59;24.58;;;3.28;;
57826;SDS011;43656;57.746;11.780;2023-02-12T10:26:49;22.67;;;2.90;;
57826;SDS011;43656;57.746;11.780;2023-02-12T10:29:23;27.88;;;3.60;;
57826;SDS011;43656;57.746;11.780;2023-02-12T10:31:56;30.23;;;3.53;;
57826;SDS011;43656;57.746;11.780;2023-02-12T10:34:33;26.08;;;3.60;;
57826;SDS011;43656;57.746;11.780;2023-02-12T10:37:07;24.58;;;2.95;;
57826;SDS011;43656;57.746;11.780;2023-02-12T10:39:42;24.02;;;3.20;;
57826;SDS011;43656;57.746;11.780;2023-02-12T10:42:19;21.67;;;3.10;;
57826;SDS011;43656;57.746;11.780;2023-02-12T10:44:52;28.98;;;3.22;;
57826;SDS011;43656;57.746;11.780;2023-02-12T10:47:18;26.73;;;3.45;;
57826;SDS011;43656;57.746;11.780;2023-02-12T10:49:48;29.30;;;4.22;;
57826;SDS011;43656;57.746;11.780;2023-02-12T10:52:33;23.55;;;2.65;;
57826;SDS011;43656;57.746;11.780;2023-02-12T10:57:57;19.38;;;3.10;;
57826;SDS011;43656;57.746;11.780;2023-02-12T11:03:01;28.20;;;4.00;;
57826;SDS011;43656;57.746;11.780;2023-02-12T11:05:45;26.20;;;3.20;;
57826;SDS011;43656;57.746;11.780;2023-02-12T11:11:01;24.38;;;4.13;;
57826;SDS011;43656;57.746;11.780;2023-02-12T11:13:28;24.92;;;3.40;;
57826;SDS011;43656;57.746;11.780;2023-02-12T11:15:54;31.08;;;3.72;;
57826;SDS011;43656;57.746;11.780;2023-02-12T11:20:49;25.63;;;4.30;;
57826;SDS011;43656;57.746;11.780;2023-02-12T11:23:33;25.20;;;3.47;;
57826;SDS011;43656;57.746;11.780;2023-02-12T11:28:54;20.63;;;3.42;;
57826;SDS011;43656;57.746;11.780;2023-02-12T11:31:22;15.80;;;2.22;;
57826;SDS011;43656;57.746;11.780;2023-02-12T11:34:31;19.15;;;3.17;;
57826;SDS011;43656;57.746;11.780;2023-02-12T11:36:49;23.10;;;3.17;;
57826;SDS011;43656;57.746;11.780;2023-02-12T11:39:17;22.02;;;2.67;;
57826;SDS011;43656;57.746;11.780;2023-02-12T11:41:43;24.95;;;3.30;;
57826;SDS011;43656;57.746;11.780;2023-02-12T11:44:09;24.67;;;3.15;;
57826;SDS011;43656;57.746;11.780;2023-02-12T11:46:37;26.67;;;4.40;;
57826;SDS011;43656;57.746;11.780;2023-02-12T11:49:04;25.83;;;3.08;;
57826;SDS011;43656;57.746;11.780;2023-02-12T11:51:30;23.45;;;3.20;;
57826;SDS011;43656;57.746;11.780;2023-02-12T11:53:57;28.98;;;4.38;;
57826;SDS011;43656;57.746;11.780;2023-02-12T11:56:43;19.67;;;2.85;;
57826;SDS011;43656;57.746;11.780;2023-02-12T11:59:56;20.10;;;3.10;;
57826;SDS011;43656;57.746;11.780;2023-02-12T12:02:22;26.15;;;3.08;;
57826;SDS011;43656;57.746;11.780;2023-02-12T12:05:07;19.15;;;3.00;;
57826;SDS011;43656;57.746;11.780;2023-02-12T12:07:38;23.75;;;3.40;;
57826;SDS011;43656;57.746;11.780;2023-02-12T12:10:41;26.05;;;3.42;;
57826;SDS011;43656;57.746;11.780;2023-02-12T12:13:03;29.77;;;3.73;;
57826;SDS011;43656;57.746;11.780;2023-02-12T12:15:37;20.65;;;2.53;;
57826;SDS011;43656;57.746;11.780;2023-02-12T12:21:33;24.00;;;3.05;;
57826;SDS011;43656;57.746;11.780;2023-02-12T12:26:43;26.75;;;3.60;;
57826;SDS011;43656;57.746;11.780;2023-02-12T12:29:21;24.42;;;3.22;;
57826;SDS011;43656;57.746;11.780;2023-02-12T12:31:57;23.08;;;3.03;;
57826;SDS011;43656;57.746;11.780;2023-02-12T12:34:26;24.70;;;3.88;;
57826;SDS011;43656;57.746;11.780;2023-02-12T12:40:02;26.08;;;3.35;;
57826;SDS011;43656;57.746;11.780;2023-02-12T12:42:55;17.00;;;2.80;;
57826;SDS011;43656;57.746;11.780;2023-02-12T13:00:23;22.48;;;3.63;;
57826;SDS011;43656;57.746;11.780;2023-02-12T13:13:47;20.75;;;2.58;;
57826;SDS011;43656;57.746;11.780;2023-02-12T13:24:39;25.70;;;3.58;;
57826;SDS011;43656;57.746;11.780;2023-02-12T13:29:45;18.05;;;2.78;;
57826;SDS011;43656;57.746;11.780;2023-02-12T13:34:56;27.83;;;3.65;;
57826;SDS011;43656;57.746;11.780;2023-02-12T13:37:43;24.17;;;3.20;;
57826;SDS011;43656;57.746;11.780;2023-02-12T13:40:16;24.60;;;3.25;;
57826;SDS011;43656;57.746;11.780;2023-02-12T13:47:54;27.45;;;3.78;;
57826;SDS011;43656;57.746;11.780;2023-02-12T13:53:17;31.23;;;4.18;;
57826;SDS011;43656;57.746;11.780;2023-02-12T13:58:51;22.83;;;3.22;;
57826;SDS011;43656;57.746;11.780;2023-02-12T14:09:33;25.23;;;3.28;;
57826;SDS011;43656;57.746;11.780;2023-02-12T14:12:00;18.27;;;3.15;;
57826;SDS011;43656;57.746;11.780;2023-02-12T14:14:32;30.20;;;3.70;;
57826;SDS011;43656;57.746;11.780;2023-02-12T14:20:37;12.45;;;2.33;;
57826;SDS011;43656;57.746;11.780;2023-02-12T14:27:49;25.75;;;3.10;;
57826;SDS011;43656;57.746;11.780;2023-02-12T14:30:26;23.48;;;3.17;;
57826;SDS011;43656;57.746;11.780;2023-02-12T14:35:36;28.30;;;3.63;;
57826;SDS011;43656;57.746;11.780;2023-02-12T14:40:44;18.10;;;2.75;;
57826;SDS011;43656;57.746;11.780;2023-02-12T14:54:10;23.85;;;3.10;;
57826;SDS011;43656;57.746;11.780;2023-02-12T14:56:44;28.17;;;4.53;;
57826;SDS011;43656;57.746;11.780;2023-02-12T14:59:14;32.95;;;3.95;;
57826;SDS011;43656;57.746;11.780;2023-02-12T15:01:42;22.70;;;3.50;;
57826;SDS011;43656;57.746;11.780;2023-02-12T15:04:13;23.77;;;3.40;;
57826;SDS011;43656;57.746;11.780;2023-02-12T15:06:50;26.00;;;3.55;;
57826;SDS011;43656;57.746;11.780;2023-02-12T15:09:25;32.38;;;3.78;;
57826;SDS011;43656;57.746;11.780;2023-02-12T15:14:51;27.40;;;3.60;;
57826;SDS011;43656;57.746;11.780;2023-02-12T15:17:26;24.88;;;3.40;;
57826;SDS011;43656;57.746;11.780;2023-02-12T15:19:58;20.85;;;3.13;;
57826;SDS011;43656;57.746;11.780;2023-02-12T15:22:38;25.05;;;3.63;;
57826;SDS011;43656;57.746;11.780;2023-02-12T15:25:27;35.60;;;4.55;;
57826;SDS011;43656;57.746;11.780;2023-02-12T15:30:31;33.17;;;4.28;;
57826;SDS011;43656;57.746;11.780;2023-02-12T15:33:03;29.92;;;3.85;;
57826;SDS011;43656;57.746;11.780;2023-02-12T15:35:31;27.73;;;3.78;;
57826;SDS011;43656;57.746;11.780;2023-02-12T15:37:58;33.65;;;4.85;;
57826;SDS011;43656;57.746;11.780;2023-02-12T15:40:25;39.58;;;4.80;;
57826;SDS011;43656;57.746;11.780;2023-02-12T15:45:19;28.65;;;3.38;;
57826;SDS011;43656;57.746;11.780;2023-02-12T15:47:54;29.63;;;3.28;;
57826;SDS011;43656;57.746;11.780;2023-02-12T15:50:23;27.00;;;3.65;;
57826;SDS011;43656;57.746;11.780;2023-02-12T15:52:49;26.42;;;4.53;;
57826;SDS011;43656;57.746;11.780;2023-02-12T15:55:20;27.40;;;3.58;;
57826;SDS011;43656;57.746;11.780;2023-02-12T15:57:53;34.35;;;3.92;;
57826;SDS011;43656;57.746;11.780;2023-02-12T16:00:40;25.80;;;3.65;;
57826;SDS011;43656;57.746;11.780;2023-02-12T16:03:24;27.48;;;4.30;;
57826;SDS011;43656;57.746;11.780;2023-02-12T16:05:55;30.00;;;3.78;;
57826;SDS011;43656;57.746;11.780;2023-02-12T16:08:26;28.02;;;3.75;;
57826;SDS011;43656;57.746;11.780;2023-02-12T16:10:53;35.08;;;4.10;;
57826;SDS011;43656;57.746;11.780;2023-02-12T16:13:25;31.90;;;4.43;;
57826;SDS011;43656;57.746;11.780;2023-02-12T16:18:30;32.90;;;4.80;;
57826;SDS011;43656;57.746;11.780;2023-02-12T16:21:03;23.30;;;3.17;;
57826;SDS011;43656;57.746;11.780;2023-02-12T16:23:35;24.02;;;3.70;;
57826;SDS011;43656;57.746;11.780;2023-02-12T16:26:00;33.78;;;3.83;;
57826;SDS011;43656;57.746;11.780;2023-02-12T16:28:27;26.35;;;4.40;;
57826;SDS011;43656;57.746;11.780;2023-02-12T16:31:05;25.17;;;3.70;;
57826;SDS011;43656;57.746;11.780;2023-02-12T16:38:48;25.60;;;3.50;;
57826;SDS011;43656;57.746;11.780;2023-02-12T16:41:18;32.42;;;3.95;;
57826;SDS011;43656;57.746;11.780;2023-02-12T16:46:25;27.83;;;4.22;;
57826;SDS011;43656;57.746;11.780;2023-02-12T16:48:56;31.77;;;4.45;;
57826;SDS011;43656;57.746;11.780;2023-02-12T16:51:25;31.40;;;3.85;;
57826;SDS011;43656;57.746;11.780;2023-02-12T16:53:55;33.90;;;3.92;;
57826;SDS011;43656;57.746;11.780;2023-02-12T16:56:23;26.77;;;3.97;;
57826;SDS011;43656;57.746;11.780;2023-02-12T16:58:51;33.55;;;4.22;;
57826;SDS011;43656;57.746;11.780;2023-02-12T17:01:22;27.70;;;4.05;;
57826;SDS011;43656;57.746;11.780;2023-02-12T17:03:50;31.40;;;4.13;;
57826;SDS011;43656;57.746;11.780;2023-02-12T17:06:17;31.85;;;4.18;;
57826;SDS011;43656;57.746;11.780;2023-02-12T17:08:43;28.65;;;3.88;;
57826;SDS011;43656;57.746;11.780;2023-02-12T17:11:09;38.70;;;4.43;;
57826;SDS011;43656;57.746;11.780;2023-02-12T17:13:34;34.38;;;4.45;;
57826;SDS011;43656;57.746;11.780;2023-02-12T17:16:00;30.25;;;4.70;;
57826;SDS011;43656;57.746;11.780;2023-02-12T17:18:25;33.22;;;4.05;;
57826;SDS011;43656;57.746;11.780;2023-02-12T17:20:55;36.83;;;4.85;;
57826;SDS011;43656;57.746;11.780;2023-02-12T17:23:22;29.70;;;4.38;;
57826;SDS011;43656;57.746;11.780;2023-02-12T17:25:49;24.13;;;3.83;;
57826;SDS011;43656;57.746;11.780;2023-02-12T17:28:14;29.67;;;4.50;;
57826;SDS011;43656;57.746;11.780;2023-02-12T17:30:40;26.35;;;3.22;;
57826;SDS011;43656;57.746;11.780;2023-02-12T17:33:06;38.65;;;4.63;;
57826;SDS011;43656;57.746;11.780;2023-02-12T17:35:32;35.72;;;4.72;;
57826;SDS011;43656;57.746;11.780;2023-02-12T17:37:57;41.17;;;4.80;;
57826;SDS011;43656;57.746;11.780;2023-02-12T17:40:23;31.63;;;4.72;;
57826;SDS011;43656;57.746;11.780;2023-02-12T17:42:48;46.88;;;4.75;;
57826;SDS011;43656;57.746;11.780;2023-02-12T17:45:13;34.05;;;4.35;;
57826;SDS011;43656;57.746;11.780;2023-02-12T17:47:39;38.22;;;4.05;;